Time;durP1;ratioP1;P1;durP2;ratioP2;P2;SDS_P1;SDS_P2;PMS_P1;PMS_P2;Temp;Humidity;BMP_temperature;BMP_pressure;BME280_temperature;BME280_humidity;BME280_pressure;Samples;Min_cycle;Max_cycle;Signal;HPM_P1;HPM_P2
2024/03/13 00:00:10;;;;;;;28.30;18.50;;;;;;;;;;4931477;29;20306;-85
2024/03/13 00:02:41;;;;;;;31.03;18.83;;;;;;;;;;4921552;29;20219;-85
2024/03/13 00:05:09;;;;;;;26.60;17.60;;;;;;;;;;4925430;29;21003;-86
2024/03/13 00:07:37;;;;;;;41.97;20.17;;;;;;;;;;4908088;29;20341;-84
2024/03/13 00:10:06;;;;;;;46.43;23.50;;;;;;;;;;4929817;29;20720;-85
2024/03/13 00:12:33;;;;;;;87.37;24.90;;;;;;;;;;4902646;29;20685;-86
2024/03/13 00:14:59;;;;;;;49.67;23.43;;;;;;;;;;4912740;29;20225;-84
2024/03/13 00:17:24;;;;;;;42.73;23.40;;;;;;;;;;4945801;28;20215;-83
2024/03/13 00:19:56;;;;;;;51.80;24.63;;;;;;;;;;4932761;28;20222;-85
2024/03/13 00:22:24;;;;;;;43.93;23.33;;;;;;;;;;4912842;28;20223;-85
2024/03/13 00:24:54;;;;;;;46.03;25.57;;;;;;;;;;4949832;28;20260;-84
2024/03/13 00:27:21;;;;;;;50.87;27.53;;;;;;;;;;4921701;29;20310;-85
2024/03/13 00:29:47;;;;;;;48.60;25.33;;;;;;;;;;4919232;29;20307;-86
2024/03/13 00:32:14;;;;;;;41.23;24.33;;;;;;;;;;4913593;28;20660;-85
2024/03/13 00:34:43;;;;;;;53.13;26.57;;;;;;;;;;4917444;29;20220;-86
2024/03/13 00:37:11;;;;;;;50.70;26.30;;;;;;;;;;4930884;28;20653;-83
2024/03/13 00:39:37;;;;;;;47.47;25.73;;;;;;;;;;4912901;29;20232;-84
2024/03/13 00:42:03;;;;;;;43.37;24.00;;;;;;;;;;4918918;29;20250;-85
2024/03/13 00:44:29;;;;;;;36.70;22.40;;;;;;;;;;4897001;29;20224;-85
2024/03/13 00:46:57;;;;;;;36.53;21.83;;;;;;;;;;4911666;28;20226;-85
2024/03/13 00:49:25;;;;;;;46.07;24.07;;;;;;;;;;4894899;28;20239;-84
2024/03/13 00:51:55;;;;;;;64.90;24.73;;;;;;;;;;4903838;29;20220;-85
2024/03/13 00:54:21;;;;;;;111.00;25.73;;;;;;;;;;4914436;29;20220;-81
2024/03/13 00:56:50;;;;;;;186.07;28.00;;;;;;;;;;4914245;29;20218;-84
2024/03/13 00:59:18;;;;;;;133.20;25.03;;;;;;;;;;4951803;28;20199;-82
2024/03/13 01:01:44;;;;;;;73.57;26.57;;;;;;;;;;4924926;29;20219;-85
2024/03/13 01:04:11;;;;;;;40.17;22.87;;;;;;;;;;4927482;28;20699;-83
2024/03/13 01:06:39;;;;;;;45.93;24.13;;;;;;;;;;4919370;29;20238;-84
2024/03/13 01:09:05;;;;;;;44.53;23.90;;;;;;;;;;4929104;28;20216;-85
2024/03/13 01:11:34;;;;;;;44.87;24.37;;;;;;;;;;4956071;28;20227;-85
2024/03/13 01:14:03;;;;;;;43.07;24.23;;;;;;;;;;4951247;28;20239;-84
2024/03/13 01:16:30;;;;;;;44.93;23.17;;;;;;;;;;4911294;28;20251;-85
2024/03/13 01:18:57;;;;;;;40.73;22.03;;;;;;;;;;4929820;28;20230;-84
2024/03/13 01:21:25;;;;;;;41.03;21.87;;;;;;;;;;4914762;29;20235;-84
2024/03/13 01:23:53;;;;;;;40.90;22.47;;;;;;;;;;4911521;29;20223;-85
2024/03/13 01:26:20;;;;;;;98.43;26.17;;;;;;;;;;4891481;28;20744;-83
2024/03/13 01:28:46;;;;;;;138.10;25.03;;;;;;;;;;4949002;28;20233;-85
2024/03/13 01:31:14;;;;;;;51.13;24.23;;;;;;;;;;4944445;28;20339;-84
2024/03/13 01:33:40;;;;;;;71.97;24.17;;;;;;;;;;4949626;28;20231;-85
2024/03/13 01:36:08;;;;;;;63.87;23.40;;;;;;;;;;4948022;29;20314;-83
2024/03/13 01:38:33;;;;;;;48.93;21.03;;;;;;;;;;4945252;28;20227;-82
2024/03/13 01:55:23;;;;;;;52.53;25.33;;;;;;;;;;4935426;29;20216;-84
2024/03/13 02:03:16;;;;;;;67.40;29.50;;;;;;;;;;4930728;28;20677;-86
2024/03/13 02:05:42;;;;;;;74.50;30.93;;;;;;;;;;4932012;28;20314;-85
2024/03/13 02:08:13;;;;;;;71.20;31.33;;;;;;;;;;4941443;28;20220;-86
2024/03/13 02:10:39;;;;;;;87.50;35.07;;;;;;;;;;4926382;28;20948;-85
2024/03/13 02:13:11;;;;;;;100.90;37.97;;;;;;;;;;4925939;28;20231;-82
2024/03/13 02:15:40;;;;;;;83.57;34.00;;;;;;;;;;4945770;28;20234;-85
2024/03/13 02:18:28;;;;;;;87.20;34.07;;;;;;;;;;4948934;28;20282;-84
2024/03/13 02:20:53;;;;;;;80.67;32.77;;;;;;;;;;4954641;28;20215;-84
2024/03/13 02:23:27;;;;;;;73.03;30.67;;;;;;;;;;4921303;29;20227;-85
2024/03/13 02:25:53;;;;;;;76.03;32.00;;;;;;;;;;4924788;29;20231;-85
2024/03/13 02:28:37;;;;;;;80.17;33.07;;;;;;;;;;4919936;28;20226;-85
2024/03/13 02:31:07;;;;;;;87.33;34.67;;;;;;;;;;4925360;29;20250;-86
2024/03/13 02:33:33;;;;;;;90.67;34.67;;;;;;;;;;4937939;29;20650;-86
2024/03/13 02:36:01;;;;;;;92.83;36.30;;;;;;;;;;4942605;28;20301;-86
2024/03/13 02:38:29;;;;;;;90.73;36.13;;;;;;;;;;4917026;28;20234;-82
2024/03/13 02:40:57;;;;;;;94.10;35.50;;;;;;;;;;4916022;29;20699;-85
2024/03/13 02:43:23;;;;;;;86.37;34.23;;;;;;;;;;4912561;29;20243;-86
2024/03/13 02:45:48;;;;;;;85.60;33.40;;;;;;;;;;4953623;28;20231;-85
2024/03/13 02:48:16;;;;;;;99.90;35.40;;;;;;;;;;4931922;28;20223;-85
2024/03/13 02:50:43;;;;;;;98.00;36.30;;;;;;;;;;4906845;29;20245;-86
2024/03/13 02:53:09;;;;;;;99.77;37.20;;;;;;;;;;4927101;29;20643;-84
2024/03/13 02:55:35;;;;;;;102.07;38.50;;;;;;;;;;4915778;29;20227;-82
2024/03/13 02:58:03;;;;;;;102.27;37.03;;;;;;;;;;4918269;28;20231;-83
2024/03/13 03:00:29;;;;;;;105.17;37.47;;;;;;;;;;4912202;29;20243;-86
2024/03/13 03:02:55;;;;;;;99.90;37.10;;;;;;;;;;4920445;29;20962;-83
2024/03/13 03:05:21;;;;;;;99.47;37.17;;;;;;;;;;4929748;28;20237;-86
2024/03/13 03:07:49;;;;;;;146.77;38.23;;;;;;;;;;4947665;28;20234;-86
2024/03/13 03:10:15;;;;;;;164.70;39.73;;;;;;;;;;4933007;29;20219;-85
2024/03/13 03:12:43;;;;;;;235.73;41.80;;;;;;;;;;4912970;29;20648;-85
2024/03/13 03:15:14;;;;;;;306.73;41.10;;;;;;;;;;4936710;29;20216;-85
2024/03/13 03:17:40;;;;;;;213.60;40.03;;;;;;;;;;4953773;28;20243;-84
2024/03/13 03:20:06;;;;;;;228.43;42.27;;;;;;;;;;4913841;28;20219;-83
2024/03/13 03:22:32;;;;;;;318.77;40.07;;;;;;;;;;4917038;29;20243;-86
2024/03/13 03:25:00;;;;;;;333.77;42.57;;;;;;;;;;4913066;29;20224;-84
2024/03/13 03:27:26;;;;;;;227.37;40.00;;;;;;;;;;4953238;28;20271;-84
2024/03/13 03:29:53;;;;;;;156.10;37.17;;;;;;;;;;4914876;29;20630;-86
2024/03/13 03:32:21;;;;;;;126.27;37.40;;;;;;;;;;4933265;28;20227;-86
2024/03/13 03:34:47;;;;;;;165.37;36.73;;;;;;;;;;4911713;29;20699;-86
2024/03/13 03:37:15;;;;;;;121.50;35.47;;;;;;;;;;4909629;28;20211;-84
2024/03/13 03:39:41;;;;;;;91.93;34.50;;;;;;;;;;4909315;29;20239;-85
2024/03/13 03:42:06;;;;;;;83.40;34.17;;;;;;;;;;4918077;29;20279;-86
2024/03/13 03:44:34;;;;;;;94.77;35.47;;;;;;;;;;4923716;28;20760;-84
2024/03/13 03:47:02;;;;;;;121.03;37.10;;;;;;;;;;4916950;29;20346;-85
2024/03/13 03:49:27;;;;;;;190.83;38.50;;;;;;;;;;4930608;28;20247;-85
2024/03/13 03:51:55;;;;;;;88.03;35.13;;;;;;;;;;4927428;29;20223;-83
2024/03/13 03:54:21;;;;;;;105.57;36.97;;;;;;;;;;4910953;29;20235;-85
2024/03/13 03:56:47;;;;;;;88.10;35.23;;;;;;;;;;4911925;29;20226;-84
2024/03/13 04:03:01;;;;;;;97.30;35.83;;;;;;;;;;4950285;28;20254;-85
2024/03/13 04:05:28;;;;;;;107.97;38.83;;;;;;;;;;4918608;28;20235;-85
2024/03/13 04:07:54;;;;;;;100.53;37.73;;;;;;;;;;4917701;29;20255;-84
2024/03/13 04:10:20;;;;;;;117.47;39.53;;;;;;;;;;4929489;29;20696;-85
2024/03/13 04:12:46;;;;;;;116.70;41.00;;;;;;;;;;4925657;29;20282;-86
2024/03/13 04:15:22;;;;;;;110.47;41.70;;;;;;;;;;4926899;28;20278;-85
2024/03/13 04:17:50;;;;;;;107.87;38.13;;;;;;;;;;4931271;28;20263;-82
2024/03/13 04:20:20;;;;;;;109.27;38.17;;;;;;;;;;4926708;28;20220;-85
2024/03/13 04:22:46;;;;;;;115.20;39.40;;;;;;;;;;4915743;29;20299;-84
2024/03/13 04:25:13;;;;;;;115.63;37.70;;;;;;;;;;4911983;28;20231;-84
2024/03/13 04:27:43;;;;;;;110.27;37.93;;;;;;;;;;4922520;29;20215;-83
2024/03/13 04:30:08;;;;;;;97.57;37.30;;;;;;;;;;4930878;28;20226;-83
2024/03/13 04:32:36;;;;;;;104.10;37.70;;;;;;;;;;4928937;28;20231;-85
2024/03/13 04:35:03;;;;;;;110.87;38.20;;;;;;;;;;4935638;28;20756;-84
2024/03/13 04:37:31;;;;;;;122.00;39.97;;;;;;;;;;4897719;29;20232;-85
2024/03/13 04:39:58;;;;;;;230.70;39.77;;;;;;;;;;4912340;29;20655;-85
2024/03/13 04:42:26;;;;;;;141.23;36.10;;;;;;;;;;4907280;29;20700;-84
2024/03/13 04:44:59;;;;;;;275.33;39.47;;;;;;;;;;4937354;28;20289;-83
2024/03/13 04:47:25;;;;;;;355.53;41.23;;;;;;;;;;4940237;28;20227;-84
2024/03/13 04:49:50;;;;;;;579.37;46.87;;;;;;;;;;4935575;28;20256;-84
2024/03/13 04:52:16;;;;;;;255.87;40.27;;;;;;;;;;4937380;28;20235;-83
2024/03/13 04:54:43;;;;;;;98.47;35.50;;;;;;;;;;4913648;29;20230;-86
2024/03/13 04:57:09;;;;;;;84.97;33.83;;;;;;;;;;4921401;29;20316;-86
2024/03/13 04:59:36;;;;;;;87.50;33.07;;;;;;;;;;4936001;28;20222;-83
2024/03/13 05:02:04;;;;;;;155.97;33.70;;;;;;;;;;4950443;28;20231;-84
2024/03/13 05:04:29;;;;;;;115.13;34.57;;;;;;;;;;4931626;29;20601;-86
2024/03/13 05:07:01;;;;;;;102.40;33.50;;;;;;;;;;4941661;29;20219;-86
2024/03/13 05:09:29;;;;;;;89.67;32.70;;;;;;;;;;4925499;28;20224;-84
2024/03/13 05:11:55;;;;;;;85.70;33.77;;;;;;;;;;4966675;28;20308;-83
2024/03/13 05:14:23;;;;;;;100.27;34.67;;;;;;;;;;4956308;28;20258;-83
2024/03/13 05:16:51;;;;;;;92.80;33.40;;;;;;;;;;4894275;29;20247;-83
2024/03/13 05:19:17;;;;;;;105.23;36.57;;;;;;;;;;4934174;28;20227;-79
2024/03/13 05:21:44;;;;;;;163.83;37.63;;;;;;;;;;4939576;29;20456;-79
2024/03/13 05:24:14;;;;;;;291.30;39.27;;;;;;;;;;4910322;28;20262;-79
2024/03/13 05:26:42;;;;;;;235.33;37.53;;;;;;;;;;4931987;28;20238;-78
2024/03/13 05:29:09;;;;;;;297.07;36.97;;;;;;;;;;4927658;28;20636;-79
2024/03/13 05:31:35;;;;;;;183.57;32.20;;;;;;;;;;4938735;29;20253;-78
2024/03/13 05:34:01;;;;;;;162.57;32.53;;;;;;;;;;4941377;28;20220;-79
2024/03/13 05:36:29;;;;;;;108.30;31.97;;;;;;;;;;4913107;28;20284;-77
2024/03/13 05:38:59;;;;;;;79.77;31.33;;;;;;;;;;4905757;29;20219;-78
2024/03/13 05:41:25;;;;;;;72.50;31.27;;;;;;;;;;4916170;28;20231;-79
2024/03/13 05:43:51;;;;;;;83.80;33.07;;;;;;;;;;4915072;29;20239;-79
2024/03/13 05:46:17;;;;;;;87.57;34.80;;;;;;;;;;4931411;28;20235;-77
2024/03/13 05:48:44;;;;;;;89.77;34.97;;;;;;;;;;4914441;29;20266;-80
2024/03/13 05:51:10;;;;;;;104.03;37.10;;;;;;;;;;4924245;29;20227;-76
2024/03/13 05:53:37;;;;;;;115.93;38.07;;;;;;;;;;4940034;28;20257;-78
2024/03/13 05:56:06;;;;;;;114.57;39.60;;;;;;;;;;4933091;29;20298;-78
2024/03/13 05:58:32;;;;;;;120.70;39.30;;;;;;;;;;4944345;29;20231;-79
2024/03/13 06:01:01;;;;;;;114.27;39.30;;;;;;;;;;4926754;29;20222;-79
2024/03/13 06:03:29;;;;;;;118.03;40.27;;;;;;;;;;4937508;28;20600;-78
2024/03/13 06:05:55;;;;;;;121.17;40.77;;;;;;;;;;4927669;29;20266;-79
2024/03/13 06:08:23;;;;;;;120.60;40.40;;;;;;;;;;4951945;28;20219;-79
2024/03/13 06:10:51;;;;;;;125.87;42.83;;;;;;;;;;4929608;28;20251;-78
2024/03/13 06:13:16;;;;;;;114.23;40.13;;;;;;;;;;4919873;28;20248;-78
2024/03/13 06:15:44;;;;;;;121.23;42.03;;;;;;;;;;4922990;29;20233;-78
2024/03/13 06:18:13;;;;;;;120.00;40.70;;;;;;;;;;4930295;28;20224;-79
2024/03/13 06:20:40;;;;;;;117.40;40.47;;;;;;;;;;4936364;28;20243;-79
2024/03/13 06:23:06;;;;;;;121.10;41.57;;;;;;;;;;4900321;28;20988;-79
2024/03/13 06:25:38;;;;;;;116.80;40.87;;;;;;;;;;4921596;29;20278;-78
2024/03/13 06:30:51;;;;;;;125.53;41.20;;;;;;;;;;4911672;29;20239;-80
2024/03/13 06:33:19;;;;;;;124.43;42.53;;;;;;;;;;4925761;28;20791;-78
2024/03/13 06:35:52;;;;;;;118.63;41.73;;;;;;;;;;4958042;28;20231;-77
2024/03/13 06:38:18;;;;;;;131.60;42.97;;;;;;;;;;4894141;28;20227;-80
2024/03/13 06:40:46;;;;;;;113.50;40.73;;;;;;;;;;4917614;29;20231;-78
2024/03/13 06:43:14;;;;;;;118.53;39.90;;;;;;;;;;4920994;28;20254;-79
2024/03/13 06:45:45;;;;;;;116.13;40.80;;;;;;;;;;4940100;28;20301;-79
2024/03/13 06:48:12;;;;;;;126.87;41.17;;;;;;;;;;4930235;29;20418;-79
2024/03/13 06:50:38;;;;;;;118.23;41.63;;;;;;;;;;4948883;28;20263;-77
2024/03/13 06:53:04;;;;;;;125.47;42.27;;;;;;;;;;4925881;28;20222;-78
2024/03/13 06:55:30;;;;;;;116.67;41.53;;;;;;;;;;4914307;29;20298;-78
2024/03/13 06:57:55;;;;;;;126.97;41.60;;;;;;;;;;4903010;29;20231;-79
2024/03/13 07:00:21;;;;;;;128.83;41.90;;;;;;;;;;4902017;29;20230;-78
2024/03/13 07:02:47;;;;;;;122.00;41.70;;;;;;;;;;4937202;28;20258;-79
2024/03/13 07:05:14;;;;;;;115.67;41.27;;;;;;;;;;4908626;28;20234;-79
2024/03/13 07:07:44;;;;;;;110.63;40.80;;;;;;;;;;4905762;29;20230;-78
2024/03/13 07:10:10;;;;;;;117.17;41.40;;;;;;;;;;4928683;28;20338;-79
2024/03/13 07:12:39;;;;;;;117.73;42.90;;;;;;;;;;4925929;29;20557;-78
2024/03/13 07:15:09;;;;;;;114.17;40.67;;;;;;;;;;4947286;28;20218;-79
2024/03/13 07:17:37;;;;;;;123.73;41.97;;;;;;;;;;4908937;29;20255;-79
2024/03/13 07:20:13;;;;;;;116.63;41.93;;;;;;;;;;4940686;28;20214;-79
2024/03/13 07:22:44;;;;;;;126.60;41.87;;;;;;;;;;4944446;28;20370;-79
2024/03/13 07:25:12;;;;;;;113.53;42.13;;;;;;;;;;4922834;29;20241;-79
2024/03/13 07:27:42;;;;;;;108.97;41.90;;;;;;;;;;4904947;29;20220;-79
2024/03/13 07:30:13;;;;;;;115.43;41.30;;;;;;;;;;4939585;28;20292;-79
2024/03/13 07:32:41;;;;;;;104.47;40.07;;;;;;;;;;4911059;29;20635;-78
2024/03/13 07:35:14;;;;;;;117.30;41.53;;;;;;;;;;4940507;28;20220;-78
2024/03/13 07:37:44;;;;;;;110.10;41.87;;;;;;;;;;4939111;28;20226;-79
2024/03/13 07:40:10;;;;;;;110.77;41.80;;;;;;;;;;4902585;29;20226;-78
2024/03/13 07:42:41;;;;;;;114.00;41.30;;;;;;;;;;4914070;29;20321;-78
2024/03/13 07:45:14;;;;;;;118.00;43.37;;;;;;;;;;4903764;29;20218;-78
2024/03/13 07:47:40;;;;;;;105.87;41.03;;;;;;;;;;4939289;28;20286;-79
2024/03/13 07:50:05;;;;;;;102.47;40.07;;;;;;;;;;4938998;28;20231;-78
2024/03/13 07:52:31;;;;;;;103.50;41.67;;;;;;;;;;4910161;29;20231;-79
2024/03/13 07:54:56;;;;;;;97.00;40.20;;;;;;;;;;4933068;29;20594;-78
2024/03/13 07:57:24;;;;;;;90.97;40.47;;;;;;;;;;4946165;29;20223;-80
2024/03/13 07:59:52;;;;;;;99.50;40.57;;;;;;;;;;4930323;29;20723;-79
2024/03/13 08:02:20;;;;;;;91.53;40.50;;;;;;;;;;4927414;29;20760;-78
2024/03/13 08:04:48;;;;;;;101.73;40.57;;;;;;;;;;4933473;29;20226;-80
2024/03/13 08:07:16;;;;;;;91.30;40.60;;;;;;;;;;4927272;28;20227;-80
2024/03/13 08:09:44;;;;;;;80.23;38.80;;;;;;;;;;4909862;29;20235;-78
2024/03/13 08:12:13;;;;;;;85.77;39.03;;;;;;;;;;4912303;28;20248;-80
2024/03/13 08:14:38;;;;;;;80.93;38.43;;;;;;;;;;4916651;28;20244;-80
2024/03/13 08:17:06;;;;;;;74.33;37.57;;;;;;;;;;4931841;29;20946;-79
2024/03/13 08:19:36;;;;;;;64.73;35.03;;;;;;;;;;4918356;29;20256;-79
2024/03/13 08:22:04;;;;;;;65.40;34.47;;;;;;;;;;4948541;28;20262;-78
2024/03/13 08:24:30;;;;;;;63.73;33.27;;;;;;;;;;4925802;29;20224;-78
2024/03/13 08:26:55;;;;;;;56.00;31.40;;;;;;;;;;4924756;29;20303;-78
2024/03/13 08:29:25;;;;;;;58.33;31.87;;;;;;;;;;4922423;28;20609;-80
2024/03/13 08:31:51;;;;;;;51.27;30.17;;;;;;;;;;4952022;28;20235;-78
2024/03/13 08:34:17;;;;;;;48.63;29.50;;;;;;;;;;4942321;28;20981;-79
2024/03/13 08:36:48;;;;;;;43.47;28.20;;;;;;;;;;4925617;28;20247;-78
2024/03/13 08:39:16;;;;;;;40.10;25.43;;;;;;;;;;4916231;28;20222;-78
2024/03/13 08:41:43;;;;;;;34.27;24.00;;;;;;;;;;4936940;28;20239;-79
2024/03/13 08:44:09;;;;;;;34.57;24.27;;;;;;;;;;4910980;28;20216;-79
2024/03/13 08:46:37;;;;;;;31.37;21.37;;;;;;;;;;4939120;29;20240;-79
2024/03/13 08:49:05;;;;;;;29.13;21.47;;;;;;;;;;4912948;29;20310;-78
2024/03/13 08:51:31;;;;;;;25.43;19.17;;;;;;;;;;4913940;29;20227;-78
2024/03/13 08:53:57;;;;;;;24.33;19.13;;;;;;;;;;4929288;29;20240;-77
2024/03/13 08:56:22;;;;;;;25.30;18.80;;;;;;;;;;4936354;28;20245;-78
2024/03/13 08:58:50;;;;;;;23.17;17.90;;;;;;;;;;4930737;29;20231;-78
2024/03/13 09:01:16;;;;;;;21.43;16.73;;;;;;;;;;4930205;29;20234;-78
2024/03/13 09:03:44;;;;;;;23.70;17.77;;;;;;;;;;4941973;29;20229;-78
2024/03/13 09:06:16;;;;;;;20.63;16.27;;;;;;;;;;4905396;29;20727;-77
2024/03/13 09:08:44;;;;;;;19.70;16.07;;;;;;;;;;4928074;28;20227;-78
2024/03/13 09:11:12;;;;;;;20.27;15.77;;;;;;;;;;4929925;28;20239;-78
2024/03/13 09:13:42;;;;;;;22.23;16.73;;;;;;;;;;4908480;29;20222;-79
2024/03/13 09:16:14;;;;;;;19.07;15.60;;;;;;;;;;4930320;28;20228;-77
2024/03/13 09:18:41;;;;;;;22.53;15.70;;;;;;;;;;4930376;28;20295;-77
2024/03/13 09:21:06;;;;;;;18.83;15.43;;;;;;;;;;4925749;28;20226;-78
2024/03/13 09:23:32;;;;;;;19.53;15.17;;;;;;;;;;4945834;28;20237;-77
2024/03/13 09:25:57;;;;;;;19.60;14.97;;;;;;;;;;4945389;28;20236;-77
2024/03/13 09:28:23;;;;;;;18.80;15.33;;;;;;;;;;4922800;29;20224;-77
2024/03/13 09:30:53;;;;;;;20.07;14.63;;;;;;;;;;4930863;29;20224;-77
2024/03/13 09:33:22;;;;;;;19.43;15.30;;;;;;;;;;4943581;28;20242;-78
2024/03/13 09:35:50;;;;;;;18.00;14.17;;;;;;;;;;4937996;28;20230;-77
2024/03/13 09:38:17;;;;;;;17.97;14.70;;;;;;;;;;4911896;29;20228;-77
2024/03/13 09:40:48;;;;;;;18.70;14.30;;;;;;;;;;4916741;29;20238;-78
2024/03/13 09:43:14;;;;;;;17.43;13.20;;;;;;;;;;4922818;28;20219;-77
2024/03/13 09:45:47;;;;;;;15.57;12.83;;;;;;;;;;4917438;28;20709;-78
2024/03/13 09:48:13;;;;;;;15.30;12.60;;;;;;;;;;4933040;28;20222;-78
2024/03/13 09:50:42;;;;;;;14.53;12.17;;;;;;;;;;4931936;28;20235;-78
2024/03/13 09:53:11;;;;;;;14.43;11.97;;;;;;;;;;4911610;29;20233;-78
2024/03/13 09:55:40;;;;;;;14.20;12.13;;;;;;;;;;4919344;29;20487;-78
2024/03/13 09:58:05;;;;;;;13.80;11.40;;;;;;;;;;4925552;28;20245;-78
2024/03/13 10:00:34;;;;;;;15.70;12.60;;;;;;;;;;4935436;28;20230;-77
2024/03/13 10:03:00;;;;;;;20.10;15.23;;;;;;;;;;4913844;29;20263;-78
2024/03/13 10:05:25;;;;;;;15.77;13.10;;;;;;;;;;4908283;29;20260;-80
2024/03/13 10:07:54;;;;;;;14.73;12.40;;;;;;;;;;4907102;29;20950;-78
2024/03/13 10:10:26;;;;;;;13.13;11.73;;;;;;;;;;4927460;29;20302;-80
2024/03/13 10:12:57;;;;;;;20.23;14.47;;;;;;;;;;4934951;28;20234;-78
2024/03/13 10:15:23;;;;;;;19.83;15.23;;;;;;;;;;4925725;28;20254;-80
2024/03/13 10:18:05;;;;;;;17.13;13.67;;;;;;;;;;4909775;29;20314;-80
2024/03/13 10:20:40;;;;;;;13.47;11.83;;;;;;;;;;4940114;29;20227;-78
2024/03/13 10:23:08;;;;;;;13.43;11.90;;;;;;;;;;4944693;28;20222;-79
2024/03/13 10:25:35;;;;;;;14.30;11.87;;;;;;;;;;4898063;29;20224;-79
2024/03/13 10:28:04;;;;;;;13.83;12.10;;;;;;;;;;4948876;28;20756;-78
2024/03/13 10:30:29;;;;;;;13.37;11.63;;;;;;;;;;4906850;29;20251;-80
2024/03/13 10:32:55;;;;;;;13.83;11.50;;;;;;;;;;4921456;28;20247;-80
2024/03/13 10:35:21;;;;;;;12.40;11.10;;;;;;;;;;4907969;29;20215;-79
2024/03/13 10:37:46;;;;;;;13.73;11.53;;;;;;;;;;4939826;28;20494;-78
2024/03/13 10:40:16;;;;;;;13.47;11.03;;;;;;;;;;4907204;28;20227;-78
2024/03/13 10:42:47;;;;;;;12.77;10.83;;;;;;;;;;4930354;28;20232;-78
2024/03/13 10:45:17;;;;;;;14.60;11.10;;;;;;;;;;4928442;29;20313;-79
2024/03/13 10:47:43;;;;;;;12.57;11.00;;;;;;;;;;4916042;29;20238;-80
2024/03/13 10:50:13;;;;;;;14.17;11.40;;;;;;;;;;4940557;29;20230;-78
2024/03/13 10:52:44;;;;;;;14.40;10.83;;;;;;;;;;4922282;29;20243;-78
2024/03/13 10:55:12;;;;;;;13.90;11.73;;;;;;;;;;4952821;28;20215;-78
2024/03/13 10:57:37;;;;;;;14.27;11.77;;;;;;;;;;4920687;28;20234;-78
2024/03/13 11:00:17;;;;;;;12.87;11.00;;;;;;;;;;4896323;28;20226;-78
2024/03/13 11:02:42;;;;;;;12.87;11.23;;;;;;;;;;4898559;29;20812;-78
2024/03/13 11:05:11;;;;;;;11.87;10.43;;;;;;;;;;4939924;28;20227;-78
2024/03/13 11:07:37;;;;;;;13.80;10.80;;;;;;;;;;4950053;28;20246;-79
2024/03/13 11:10:10;;;;;;;11.10;9.87;;;;;;;;;;4934645;28;21023;-79
2024/03/13 11:12:42;;;;;;;12.13;9.90;;;;;;;;;;4922787;29;20240;-79
2024/03/13 11:15:08;;;;;;;11.40;10.17;;;;;;;;;;4915331;29;21015;-78
2024/03/13 11:17:34;;;;;;;10.63;9.53;;;;;;;;;;4908508;29;20935;-77
2024/03/13 11:20:07;;;;;;;11.63;9.80;;;;;;;;;;4929135;28;20871;-78
2024/03/13 11:22:34;;;;;;;11.50;10.00;;;;;;;;;;4922571;28;20239;-77
2024/03/13 11:25:00;;;;;;;11.80;9.23;;;;;;;;;;4914030;29;20227;-77
2024/03/13 11:27:27;;;;;;;10.40;9.30;;;;;;;;;;4930436;28;20231;-79
2024/03/13 11:29:54;;;;;;;11.50;9.70;;;;;;;;;;4894867;29;20231;-78
2024/03/13 11:32:21;;;;;;;10.70;9.50;;;;;;;;;;4942328;28;20223;-77
2024/03/13 11:34:49;;;;;;;10.47;9.20;;;;;;;;;;4936833;28;20381;-77
2024/03/13 11:37:15;;;;;;;10.63;9.40;;;;;;;;;;4953999;28;20219;-79
2024/03/13 11:39:41;;;;;;;10.10;8.93;;;;;;;;;;4930113;28;20231;-78
2024/03/13 11:42:13;;;;;;;10.97;9.67;;;;;;;;;;4908525;29;20232;-78
2024/03/13 11:44:42;;;;;;;10.87;9.40;;;;;;;;;;4940490;28;20599;-78
2024/03/13 11:47:11;;;;;;;10.47;9.33;;;;;;;;;;4935549;28;20239;-78
2024/03/13 11:49:37;;;;;;;11.13;10.03;;;;;;;;;;4930280;28;20234;-79
2024/03/13 11:52:03;;;;;;;11.77;9.83;;;;;;;;;;4926559;28;20228;-79
2024/03/13 11:54:30;;;;;;;12.13;10.67;;;;;;;;;;4906011;29;20235;-78
2024/03/13 11:57:09;;;;;;;11.63;9.63;;;;;;;;;;4894914;29;20787;-78
2024/03/13 11:59:41;;;;;;;10.67;9.40;;;;;;;;;;4946010;28;20227;-79
2024/03/13 12:02:28;;;;;;;11.55;10.35;;;;;;;;;;4927873;29;20246;-78
2024/03/13 12:05:04;;;;;;;10.60;9.30;;;;;;;;;;4953508;28;20211;-80
2024/03/13 12:07:34;;;;;;;10.57;9.40;;;;;;;;;;4936435;28;20227;-77
2024/03/13 12:10:03;;;;;;;11.13;10.03;;;;;;;;;;4906690;29;20223;-78
2024/03/13 12:12:28;;;;;;;11.83;9.83;;;;;;;;;;4923708;29;20822;-78
2024/03/13 12:14:56;;;;;;;10.80;9.70;;;;;;;;;;4930702;28;20226;-78
2024/03/13 12:17:24;;;;;;;11.20;10.00;;;;;;;;;;4906111;28;20760;-78
2024/03/13 12:19:52;;;;;;;11.53;9.13;;;;;;;;;;4911383;29;20243;-78
2024/03/13 12:22:20;;;;;;;11.25;9.73;;;;;;;;;;4906062;28;20258;-78
2024/03/13 12:24:48;;;;;;;10.50;9.50;;;;;;;;;;4907936;29;20224;-77
2024/03/13 12:27:17;;;;;;;10.83;9.57;;;;;;;;;;4923399;29;20290;-77
2024/03/13 12:29:44;;;;;;;11.33;9.73;;;;;;;;;;4924758;28;20234;-76
2024/03/13 12:32:13;;;;;;;10.63;9.53;;;;;;;;;;4917469;29;20228;-77
2024/03/13 12:34:44;;;;;;;10.35;9.20;;;;;;;;;;4933433;29;20250;-77
2024/03/13 12:37:16;;;;;;;12.57;9.83;;;;;;;;;;4919337;28;20270;-78
2024/03/13 12:39:41;;;;;;;10.97;9.87;;;;;;;;;;4938653;29;20231;-77
2024/03/13 12:42:09;;;;;;;11.97;10.10;;;;;;;;;;4942717;28;20946;-78
2024/03/13 12:44:35;;;;;;;10.83;9.70;;;;;;;;;;4907746;29;20224;-79
2024/03/13 12:47:03;;;;;;;10.63;9.60;;;;;;;;;;4934609;28;20235;-79
2024/03/13 12:49:28;;;;;;;10.45;9.45;;;;;;;;;;4952044;28;20259;-78
2024/03/13 12:51:57;;;;;;;10.30;9.30;;;;;;;;;;4915183;28;20242;-77
2024/03/13 12:54:26;;;;;;;12.20;10.23;;;;;;;;;;4925810;28;20219;-77
2024/03/13 12:56:54;;;;;;;11.47;10.27;;;;;;;;;;4929994;29;20246;-80
2024/03/13 12:59:23;;;;;;;11.00;9.90;;;;;;;;;;4919901;28;20314;-77
2024/03/13 13:01:52;;;;;;;11.53;10.33;;;;;;;;;;4946387;28;20793;-77
2024/03/13 13:04:19;;;;;;;10.30;9.30;;;;;;;;;;4939370;28;20239;-78
2024/03/13 13:06:48;;;;;;;10.10;9.10;;;;;;;;;;4934845;29;20819;-78
2024/03/13 13:09:13;;;;;;;10.68;9.57;;;;;;;;;;4960236;28;20708;-79
2024/03/13 13:11:44;;;;;;;11.90;10.70;;;;;;;;;;4936937;28;20251;-79
2024/03/13 13:14:12;;;;;;;11.70;10.50;;;;;;;;;;4954917;28;20286;-77
2024/03/13 13:16:37;;;;;;;11.50;10.30;;;;;;;;;;4922913;29;20317;-79
2024/03/13 13:19:05;;;;;;;11.90;10.67;;;;;;;;;;4901102;28;20631;-78
2024/03/13 13:21:32;;;;;;;11.90;10.63;;;;;;;;;;4924878;29;20235;-80
2024/03/13 13:24:00;;;;;;;12.73;10.43;;;;;;;;;;4929763;29;20231;-80
2024/03/13 13:26:30;;;;;;;13.68;11.77;;;;;;;;;;4924130;28;20238;-78
2024/03/13 13:28:56;;;;;;;12.60;11.30;;;;;;;;;;4906780;29;20251;-78
2024/03/13 13:31:22;;;;;;;12.37;11.07;;;;;;;;;;4943243;28;20367;-78
2024/03/13 13:33:47;;;;;;;13.73;12.03;;;;;;;;;;4923992;28;20241;-77
2024/03/13 13:36:13;;;;;;;13.03;11.63;;;;;;;;;;4938384;28;20230;-77
2024/03/13 13:38:43;;;;;;;12.67;11.40;;;;;;;;;;4947515;28;20328;-78
2024/03/13 13:41:11;;;;;;;13.30;11.90;;;;;;;;;;4938929;28;20337;-78
2024/03/13 13:43:37;;;;;;;17.25;10.95;;;;;;;;;;4939977;28;20220;-79
2024/03/13 13:46:10;;;;;;;12.53;11.23;;;;;;;;;;4928680;28;20231;-79
2024/03/13 13:48:41;;;;;;;13.93;12.43;;;;;;;;;;4913848;29;20310;-77
2024/03/13 13:51:08;;;;;;;14.77;12.10;;;;;;;;;;4922614;28;20254;-78
2024/03/13 13:53:34;;;;;;;15.30;13.70;;;;;;;;;;4938963;29;20274;-78
2024/03/13 13:55:59;;;;;;;13.97;12.47;;;;;;;;;;4929288;29;20227;-76
2024/03/13 13:58:25;;;;;;;14.80;13.30;;;;;;;;;;4910247;29;20333;-78
2024/03/13 14:00:51;;;;;;;15.57;13.60;;;;;;;;;;4926736;28;20696;-78
2024/03/13 14:03:21;;;;;;;16.50;14.67;;;;;;;;;;4919237;28;20244;-78
2024/03/13 14:05:51;;;;;;;15.80;14.10;;;;;;;;;;4923598;29;20258;-77
2024/03/13 14:08:19;;;;;;;15.83;14.23;;;;;;;;;;4895752;28;20264;-78
2024/03/13 14:10:54;;;;;;;16.83;15.03;;;;;;;;;;4912604;29;20239;-78
2024/03/13 14:13:20;;;;;;;16.80;14.90;;;;;;;;;;4926761;28;20247;-78
2024/03/13 14:15:45;;;;;;;18.03;15.47;;;;;;;;;;4916616;29;20255;-78
2024/03/13 14:18:16;;;;;;;18.77;15.43;;;;;;;;;;4911938;28;20219;-79
2024/03/13 14:20:42;;;;;;;17.53;15.60;;;;;;;;;;4920338;29;20298;-79
2024/03/13 14:23:07;;;;;;;16.87;15.07;;;;;;;;;;4907879;28;20235;-78
2024/03/13 14:25:33;;;;;;;17.87;15.97;;;;;;;;;;4928690;29;20234;-79
2024/03/13 14:27:59;;;;;;;18.57;16.27;;;;;;;;;;4927290;29;20601;-78
2024/03/13 14:30:28;;;;;;;17.63;15.33;;;;;;;;;;4943116;28;20223;-79
2024/03/13 14:32:55;;;;;;;18.23;16.00;;;;;;;;;;4922260;29;20234;-78
2024/03/13 14:35:21;;;;;;;19.17;16.17;;;;;;;;;;4909743;28;20231;-79
2024/03/13 14:37:47;;;;;;;17.20;15.17;;;;;;;;;;4955794;28;20656;-78
2024/03/13 14:40:12;;;;;;;18.30;16.33;;;;;;;;;;4954205;28;20257;-77
2024/03/13 14:42:38;;;;;;;17.30;15.40;;;;;;;;;;4951146;28;20727;-79